Allenton, Wisconsin
Current Conditions -  °F | °C
As of 6:30 AM on Saturday 20 Dec 2014 (Local Time) from KETB Reporting Station
Scattered Clouds Scattered Clouds  
Wind Chill: 25°   Ceiling: Unl
Heat Index: 25°   Visibility: 10mi
Dew Point: 19°   Wind: 0mph
Humidity: 80%   Direction: NA
Pressure: 30.25"   Gusts: NA
Location:  43.42°N, 88.34°W
Report Text: KETB 201230Z AUTO 00000KT 10SM SCT070 M04/M07 A3025 RMK AO2
Loading
Personal Weather Stations






























Interactive Weather Map New forecast layout! Learn more

10-Day Weather Forecast

Advertisements
Track Severe Weather on mobile